Saint Clair Shores, Michigan
Current Conditions -  °F | °C
As of 7:55 AM on Saturday 25 Oct 2014 (Local Time) from KMTC Reporting Station
Overcast Overcast  
Wind Chill: 51°   Ceiling: 4300
Heat Index: 51°   Visibility: 7mi
Dew Point: 50°   Wind: 9mph
Humidity: 99%   Direction: 220°SW
Pressure: 29.8"   Gusts: NA
Location:  42.58°N, 82.78°W
Report Text: KMTC 251155Z 22008KT 7SM BKN043 OVC060 10/10 A2980 RMK SLP099 T01030102 10105 20080 58014
Loading
Personal Weather Stations






























Interactive Weather Map
Tropical Storm Tracking
New forecast layout! Learn more

10-Day Weather Forecast

Advertisements
Track Severe Weather on mobile